sensor_id;sensor_type;location;lat;lon;timestamp;pressure;altitude;pressure_sealevel;temperature;humidity
74905;BME280;63465;50.862;6.220;2024-01-06T00:00:15;98585.44;;;5.60;100.00
74905;BME280;63465;50.862;6.220;2024-01-06T00:02:41;98592.22;;;5.50;100.00
74905;BME280;63465;50.862;6.220;2024-01-06T00:05:07;98592.13;;;5.52;100.00
74905;BME280;63465;50.862;6.220;2024-01-06T00:07:32;98591.59;;;5.59;100.00
74905;BME280;63465;50.862;6.220;2024-01-06T00:09:57;98589.28;;;5.67;100.00
74905;BME280;63465;50.862;6.220;2024-01-06T00:12:23;98587.22;;;5.60;100.00
74905;BME280;63465;50.862;6.220;2024-01-06T00:14:48;98595.34;;;5.55;100.00
74905;BME280;63465;50.862;6.220;2024-01-06T00:17:14;98601.03;;;5.73;100.00
74905;BME280;63465;50.862;6.220;2024-01-06T00:19:39;98603.66;;;5.60;100.00
74905;BME280;63465;50.862;6.220;2024-01-06T00:22:04;98593.47;;;5.70;100.00
74905;BME280;63465;50.862;6.220;2024-01-06T00:24:29;98602.59;;;5.75;100.00
74905;BME280;63465;50.862;6.220;2024-01-06T00:26:55;98604.28;;;5.89;100.00
74905;BME280;63465;50.862;6.220;2024-01-06T00:29:20;98610.72;;;5.71;100.00
74905;BME280;63465;50.862;6.220;2024-01-06T00:31:45;98609.78;;;5.72;100.00
74905;BME280;63465;50.862;6.220;2024-01-06T00:34:10;98609.78;;;5.72;100.00
74905;BME280;63465;50.862;6.220;2024-01-06T00:36:36;98620.50;;;5.80;100.00
74905;BME280;63465;50.862;6.220;2024-01-06T00:39:01;98622.28;;;5.79;100.00
74905;BME280;63465;50.862;6.220;2024-01-06T00:41:26;98620.81;;;5.75;100.00
74905;BME280;63465;50.862;6.220;2024-01-06T00:43:51;98627.69;;;5.76;100.00
74905;BME280;63465;50.862;6.220;2024-01-06T00:46:17;98623.72;;;5.84;100.00
74905;BME280;63465;50.862;6.220;2024-01-06T00:48:42;98619.13;;;5.87;100.00
74905;BME280;63465;50.862;6.220;2024-01-06T00:51:08;98621.44;;;6.04;100.00
74905;BME280;63465;50.862;6.220;2024-01-06T00:53:33;98624.16;;;6.03;100.00
74905;BME280;63465;50.862;6.220;2024-01-06T00:55:58;98622.06;;;6.08;100.00
74905;BME280;63465;50.862;6.220;2024-01-06T00:58:23;98619.13;;;6.12;100.00
74905;BME280;63465;50.862;6.220;2024-01-06T01:00:49;98621.31;;;6.19;100.00
74905;BME280;63465;50.862;6.220;2024-01-06T01:03:15;98624.75;;;6.19;100.00
74905;BME280;63465;50.862;6.220;2024-01-06T01:05:40;98622.97;;;6.20;100.00
74905;BME280;63465;50.862;6.220;2024-01-06T01:08:05;98625.34;;;6.23;100.00
74905;BME280;63465;50.862;6.220;2024-01-06T01:10:31;98622.97;;;6.20;100.00
74905;BME280;63465;50.862;6.220;2024-01-06T01:12:56;98625.56;;;6.20;100.00
74905;BME280;63465;50.862;6.220;2024-01-06T01:15:21;98624.75;;;6.19;100.00
74905;BME280;63465;50.862;6.220;2024-01-06T01:17:46;98626.81;;;6.27;100.00
74905;BME280;63465;50.862;6.220;2024-01-06T01:20:12;98620.78;;;6.13;100.00
74905;BME280;63465;50.862;6.220;2024-01-06T01:22:37;98628.25;;;6.31;100.00
74905;BME280;63465;50.862;6.220;2024-01-06T01:25:03;98628.97;;;6.33;100.00
74905;BME280;63465;50.862;6.220;2024-01-06T01:27:33;98624.69;;;6.32;100.00
74905;BME280;63465;50.862;6.220;2024-01-06T01:29:58;98641.59;;;6.26;100.00
74905;BME280;63465;50.862;6.220;2024-01-06T01:32:23;98636.91;;;6.19;100.00
74905;BME280;63465;50.862;6.220;2024-01-06T01:34:48;98642.81;;;6.33;100.00
74905;BME280;63465;50.862;6.220;2024-01-06T01:37:14;98647.69;;;6.38;100.00
74905;BME280;63465;50.862;6.220;2024-01-06T01:39:40;98654.88;;;6.47;100.00
74905;BME280;63465;50.862;6.220;2024-01-06T01:42:05;98650.31;;;6.38;100.00
74905;BME280;63465;50.862;6.220;2024-01-06T01:44:30;98660.63;;;6.39;100.00
74905;BME280;63465;50.862;6.220;2024-01-06T01:46:56;98656.03;;;6.43;100.00
74905;BME280;63465;50.862;6.220;2024-01-06T01:49:21;98663.44;;;6.36;100.00
74905;BME280;63465;50.862;6.220;2024-01-06T01:51:47;98661.66;;;6.37;100.00
74905;BME280;63465;50.862;6.220;2024-01-06T01:54:14;98665.06;;;6.50;100.00
74905;BME280;63465;50.862;6.220;2024-01-06T01:56:39;98670.72;;;6.44;100.00
74905;BME280;63465;50.862;6.220;2024-01-06T01:59:06;98675.03;;;6.56;100.00
74905;BME280;63465;50.862;6.220;2024-01-06T02:01:34;98677.88;;;6.53;100.00
74905;BME280;63465;50.862;6.220;2024-01-06T02:03:59;98680.25;;;6.56;100.00
74905;BME280;63465;50.862;6.220;2024-01-06T02:06:24;98676.41;;;6.49;100.00
74905;BME280;63465;50.862;6.220;2024-01-06T02:08:50;98679.03;;;6.49;100.00
74905;BME280;63465;50.862;6.220;2024-01-06T02:11:15;98678.81;;;6.52;100.00
74905;BME280;63465;50.862;6.220;2024-01-06T02:13:40;98678.91;;;6.51;100.00
74905;BME280;63465;50.862;6.220;2024-01-06T02:16:06;98679.03;;;6.49;100.00
74905;BME280;63465;50.862;6.220;2024-01-06T02:18:32;98681.97;;;6.44;100.00
74905;BME280;63465;50.862;6.220;2024-01-06T02:20:59;98679.97;;;6.48;100.00
74905;BME280;63465;50.862;6.220;2024-01-06T02:23:25;98682.34;;;6.51;100.00
74905;BME280;63465;50.862;6.220;2024-01-06T02:25:50;98681.75;;;6.48;100.00
74905;BME280;63465;50.862;6.220;2024-01-06T02:28:16;98688.00;;;6.45;100.00
74905;BME280;63465;50.862;6.220;2024-01-06T02:30:41;98691.22;;;6.49;100.00
74905;BME280;63465;50.862;6.220;2024-01-06T02:33:06;98697.56;;;6.57;100.00
74905;BME280;63465;50.862;6.220;2024-01-06T02:35:32;98699.00;;;6.61;100.00
74905;BME280;63465;50.862;6.220;2024-01-06T02:37:57;98695.88;;;6.56;100.00
74905;BME280;63465;50.862;6.220;2024-01-06T02:40:22;98699.22;;;6.58;100.00
74905;BME280;63465;50.862;6.220;2024-01-06T02:42:47;98703.81;;;6.55;100.00
74905;BME280;63465;50.862;6.220;2024-01-06T02:45:13;98708.91;;;6.56;100.00
74905;BME280;63465;50.862;6.220;2024-01-06T02:47:38;98718.28;;;6.59;100.00
74905;BME280;63465;50.862;6.220;2024-01-06T02:50:04;98719.22;;;6.58;100.00
74905;BME280;63465;50.862;6.220;2024-01-06T02:52:30;98713.00;;;6.48;100.00
74905;BME280;63465;50.862;6.220;2024-01-06T02:54:55;98720.28;;;6.42;100.00
74905;BME280;63465;50.862;6.220;2024-01-06T02:57:20;98730.28;;;6.49;100.00
74905;BME280;63465;50.862;6.220;2024-01-06T02:59:45;98728.22;;;6.41;100.00
74905;BME280;63465;50.862;6.220;2024-01-06T03:02:11;98720.59;;;6.51;100.00
74905;BME280;63465;50.862;6.220;2024-01-06T03:04:36;98721.22;;;6.54;100.00
74905;BME280;63465;50.862;6.220;2024-01-06T03:07:01;98726.63;;;6.51;100.00
74905;BME280;63465;50.862;6.220;2024-01-06T03:09:27;98735.19;;;6.40;100.00
74905;BME280;63465;50.862;6.220;2024-01-06T03:11:52;98728.94;;;6.43;100.00
74905;BME280;63465;50.862;6.220;2024-01-06T03:14:17;98739.25;;;6.44;100.00
74905;BME280;63465;50.862;6.220;2024-01-06T03:16:43;98732.28;;;6.32;100.00
74905;BME280;63465;50.862;6.220;2024-01-06T03:19:08;98742.47;;;6.48;100.00
74905;BME280;63465;50.862;6.220;2024-01-06T03:21:33;98740.81;;;6.34;100.00
74905;BME280;63465;50.862;6.220;2024-01-06T03:23:59;98738.84;;;6.38;100.00
74905;BME280;63465;50.862;6.220;2024-01-06T03:26:25;98741.13;;;6.30;100.00
74905;BME280;63465;50.862;6.220;2024-01-06T03:28:50;98746.22;;;6.44;100.00
74905;BME280;63465;50.862;6.220;2024-01-06T03:31:16;98746.94;;;6.46;100.00
74905;BME280;63465;50.862;6.220;2024-01-06T03:33:43;98745.50;;;6.42;100.00
74905;BME280;63465;50.862;6.220;2024-01-06T03:36:09;98751.03;;;6.37;100.00
74905;BME280;63465;50.862;6.220;2024-01-06T03:38:34;98751.34;;;6.20;100.00
74905;BME280;63465;50.862;6.220;2024-01-06T03:41:00;98764.47;;;6.31;100.00
74905;BME280;63465;50.862;6.220;2024-01-06T03:43:25;98759.78;;;6.11;100.00
74905;BME280;63465;50.862;6.220;2024-01-06T03:45:50;98772.75;;;5.86;100.00
74905;BME280;63465;50.862;6.220;2024-01-06T03:48:16;98769.94;;;5.89;100.00
74905;BME280;63465;50.862;6.220;2024-01-06T03:50:41;98771.91;;;5.85;100.00
74905;BME280;63465;50.862;6.220;2024-01-06T03:53:06;98776.19;;;5.86;100.00
74905;BME280;63465;50.862;6.220;2024-01-06T03:55:31;98775.25;;;5.87;100.00
74905;BME280;63465;50.862;6.220;2024-01-06T03:57:57;98782.09;;;5.75;100.00
74905;BME280;63465;50.862;6.220;2024-01-06T04:00:25;98785.47;;;5.90;100.00
74905;BME280;63465;50.862;6.220;2024-01-06T04:02:51;98789.09;;;5.88;100.00
74905;BME280;63465;50.862;6.220;2024-01-06T04:05:16;98784.34;;;5.94;100.00
74905;BME280;63465;50.862;6.220;2024-01-06T04:07:41;98789.50;;;5.81;100.00
74905;BME280;63465;50.862;6.220;2024-01-06T04:10:07;98792.88;;;5.96;100.00
74905;BME280;63465;50.862;6.220;2024-01-06T04:12:32;98787.03;;;5.93;100.00
74905;BME280;63465;50.862;6.220;2024-01-06T04:14:57;98788.75;;;5.79;100.00
74905;BME280;63465;50.862;6.220;2024-01-06T04:17:22;98791.31;;;5.94;100.00
74905;BME280;63465;50.862;6.220;2024-01-06T04:19:48;98797.06;;;5.72;100.00
74905;BME280;63465;50.862;6.220;2024-01-06T04:22:13;98798.94;;;5.70;100.00
74905;BME280;63465;50.862;6.220;2024-01-06T04:24:38;98799.38;;;5.76;100.00
74905;BME280;63465;50.862;6.220;2024-01-06T04:27:05;98803.31;;;5.82;100.00
74905;BME280;63465;50.862;6.220;2024-01-06T04:29:31;98803.13;;;5.85;100.00
74905;BME280;63465;50.862;6.220;2024-01-06T04:31:56;98798.63;;;5.74;100.00
74905;BME280;63465;50.862;6.220;2024-01-06T04:34:21;98813.22;;;5.77;100.00
74905;BME280;63465;50.862;6.220;2024-01-06T04:36:47;98799.38;;;5.76;100.00
74905;BME280;63465;50.862;6.220;2024-01-06T04:39:13;98807.91;;;5.78;100.00
74905;BME280;63465;50.862;6.220;2024-01-06T04:41:39;98804.97;;;5.70;100.00
74905;BME280;63465;50.862;6.220;2024-01-06T04:44:05;98809.94;;;5.61;100.00
74905;BME280;63465;50.862;6.220;2024-01-06T04:46:30;98809.34;;;5.70;100.00
74905;BME280;63465;50.862;6.220;2024-01-06T04:48:56;98810.06;;;5.72;100.00
74905;BME280;63465;50.862;6.220;2024-01-06T04:51:21;98807.56;;;5.70;100.00
74905;BME280;63465;50.862;6.220;2024-01-06T04:53:46;98812.56;;;5.73;100.00
74905;BME280;63465;50.862;6.220;2024-01-06T04:56:12;98811.19;;;5.68;100.00
74905;BME280;63465;50.862;6.220;2024-01-06T04:58:38;98815.88;;;5.63;100.00
74905;BME280;63465;50.862;6.220;2024-01-06T05:01:03;98818.00;;;5.83;100.00
74905;BME280;63465;50.862;6.220;2024-01-06T05:03:29;98818.28;;;5.66;100.00
74905;BME280;63465;50.862;6.220;2024-01-06T05:05:54;98824.69;;;5.60;100.00
74905;BME280;63465;50.862;6.220;2024-01-06T05:08:19;98822.19;;;5.59;100.00
74905;BME280;63465;50.862;6.220;2024-01-06T05:10:47;98827.81;;;5.53;100.00
74905;BME280;63465;50.862;6.220;2024-01-06T05:13:12;98829.38;;;5.55;100.00
74905;BME280;63465;50.862;6.220;2024-01-06T05:15:38;98834.97;;;5.49;100.00
74905;BME280;63465;50.862;6.220;2024-01-06T05:18:03;98821.53;;;5.42;100.00
74905;BME280;63465;50.862;6.220;2024-01-06T05:20:29;98839.09;;;5.39;100.00
74905;BME280;63465;50.862;6.220;2024-01-06T05:22:54;98840.50;;;5.57;100.00
74905;BME280;63465;50.862;6.220;2024-01-06T05:25:19;98847.22;;;5.47;100.00
74905;BME280;63465;50.862;6.220;2024-01-06T05:27:45;98843.63;;;5.35;100.00
74905;BME280;63465;50.862;6.220;2024-01-06T05:30:10;98846.09;;;5.24;100.00
74905;BME280;63465;50.862;6.220;2024-01-06T05:32:37;98853.00;;;5.38;100.00
74905;BME280;63465;50.862;6.220;2024-01-06T05:35:02;98858.13;;;5.39;100.00
74905;BME280;63465;50.862;6.220;2024-01-06T05:37:28;98853.13;;;5.22;100.00
74905;BME280;63465;50.862;6.220;2024-01-06T05:39:53;98850.59;;;5.35;100.00
74905;BME280;63465;50.862;6.220;2024-01-06T05:42:19;98853.69;;;5.27;100.00
74905;BME280;63465;50.862;6.220;2024-01-06T05:44:45;98866.78;;;5.26;100.00
74905;BME280;63465;50.862;6.220;2024-01-06T05:47:10;98868.75;;;5.22;100.00
74905;BME280;63465;50.862;6.220;2024-01-06T05:49:35;98869.19;;;5.14;100.00
74905;BME280;63465;50.862;6.220;2024-01-06T05:52:01;98873.34;;;5.17;100.00
74905;BME280;63465;50.862;6.220;2024-01-06T05:54:26;98883.31;;;5.25;100.00
74905;BME280;63465;50.862;6.220;2024-01-06T05:56:51;98883.56;;;5.34;100.00
74905;BME280;63465;50.862;6.220;2024-01-06T05:59:17;98884.22;;;5.38;100.00
74905;BME280;63465;50.862;6.220;2024-01-06T06:01:42;98880.91;;;5.22;100.00
74905;BME280;63465;50.862;6.220;2024-01-06T06:04:09;98889.06;;;5.30;100.00
74905;BME280;63465;50.862;6.220;2024-01-06T06:06:34;98888.94;;;5.17;100.00
74905;BME280;63465;50.862;6.220;2024-01-06T06:09:00;98884.13;;;5.25;100.00
74905;BME280;63465;50.862;6.220;2024-01-06T06:11:25;98896.19;;;4.98;100.00
74905;BME280;63465;50.862;6.220;2024-01-06T06:13:51;98899.72;;;5.11;100.00
74905;BME280;63465;50.862;6.220;2024-01-06T06:16:16;98917.38;;;5.20;100.00
74905;BME280;63465;50.862;6.220;2024-01-06T06:18:41;98921.34;;;5.11;100.00
74905;BME280;63465;50.862;6.220;2024-01-06T06:21:07;98921.53;;;5.08;100.00
74905;BME280;63465;50.862;6.220;2024-01-06T06:23:33;98922.28;;;5.25;100.00
74905;BME280;63465;50.862;6.220;2024-01-06T06:25:58;98924.31;;;5.20;100.00
74905;BME280;63465;50.862;6.220;2024-01-06T06:28:25;98936.75;;;5.14;100.00
74905;BME280;63465;50.862;6.220;2024-01-06T06:30:50;98934.53;;;5.08;100.00
74905;BME280;63465;50.862;6.220;2024-01-06T06:33:15;98938.88;;;4.79;100.00
74905;BME280;63465;50.862;6.220;2024-01-06T06:35:41;98947.28;;;4.55;100.00
74905;BME280;63465;50.862;6.220;2024-01-06T06:38:06;98947.16;;;4.42;100.00
74905;BME280;63465;50.862;6.220;2024-01-06T06:40:31;98953.19;;;4.42;100.00
74905;BME280;63465;50.862;6.220;2024-01-06T06:42:57;98960.03;;;4.43;100.00
74905;BME280;63465;50.862;6.220;2024-01-06T06:45:22;98961.78;;;4.43;100.00
74905;BME280;63465;50.862;6.220;2024-01-06T06:47:49;98967.00;;;4.43;100.00
74905;BME280;63465;50.862;6.220;2024-01-06T06:50:18;98972.97;;;4.29;100.00
74905;BME280;63465;50.862;6.220;2024-01-06T06:52:46;98972.56;;;4.21;100.00
74905;BME280;63465;50.862;6.220;2024-01-06T06:55:11;98976.09;;;4.20;100.00
74905;BME280;63465;50.862;6.220;2024-01-06T06:57:36;98983.28;;;4.15;100.00
74905;BME280;63465;50.862;6.220;2024-01-06T07:00:02;98984.88;;;4.17;100.00
74905;BME280;63465;50.862;6.220;2024-01-06T07:02:27;98999.94;;;4.27;100.00
74905;BME280;63465;50.862;6.220;2024-01-06T07:04:53;98993.16;;;4.24;100.00
74905;BME280;63465;50.862;6.220;2024-01-06T07:07:18;98993.38;;;4.35;100.00
74905;BME280;63465;50.862;6.220;2024-01-06T07:09:44;99005.13;;;4.27;100.00
74905;BME280;63465;50.862;6.220;2024-01-06T07:12:09;99012.66;;;4.31;100.00
74905;BME280;63465;50.862;6.220;2024-01-06T07:14:34;99011.63;;;4.34;100.00
74905;BME280;63465;50.862;6.220;2024-01-06T07:17:00;99020.66;;;4.42;100.00
74905;BME280;63465;50.862;6.220;2024-01-06T07:19:25;99026.63;;;4.29;100.00
74905;BME280;63465;50.862;6.220;2024-01-06T07:21:50;99027.41;;;4.15;100.00
74905;BME280;63465;50.862;6.220;2024-01-06T07:24:15;99028.59;;;4.09;100.00
74905;BME280;63465;50.862;6.220;2024-01-06T07:26:41;99035.09;;;4.16;100.00
74905;BME280;63465;50.862;6.220;2024-01-06T07:29:06;99039.22;;;4.05;100.00
74905;BME280;63465;50.862;6.220;2024-01-06T07:31:33;99046.25;;;4.03;100.00
74905;BME280;63465;50.862;6.220;2024-01-06T07:33:58;99049.84;;;4.16;100.00
74905;BME280;63465;50.862;6.220;2024-01-06T07:36:24;99055.25;;;4.27;100.00
74905;BME280;63465;50.862;6.220;2024-01-06T07:38:49;99055.03;;;4.00;100.00
74905;BME280;63465;50.862;6.220;2024-01-06T07:41:14;99054.34;;;3.97;100.00
74905;BME280;63465;50.862;6.220;2024-01-06T07:43:39;99058.22;;;4.05;100.00
74905;BME280;63465;50.862;6.220;2024-01-06T07:46:05;99071.16;;;3.90;100.00
74905;BME280;63465;50.862;6.220;2024-01-06T07:48:32;99077.28;;;3.88;100.00
74905;BME280;63465;50.862;6.220;2024-01-06T07:50:57;99084.56;;;3.98;100.00
74905;BME280;63465;50.862;6.220;2024-01-06T07:53:22;99086.97;;;3.85;100.00
74905;BME280;63465;50.862;6.220;2024-01-06T07:55:47;99089.50;;;3.86;100.00
74905;BME280;63465;50.862;6.220;2024-01-06T07:58:13;99096.59;;;3.83;100.00
74905;BME280;63465;50.862;6.220;2024-01-06T08:00:38;99100.66;;;3.71;100.00
74905;BME280;63465;50.862;6.220;2024-01-06T08:03:03;99096.66;;;3.66;100.00
74905;BME280;63465;50.862;6.220;2024-01-06T08:05:31;99097.25;;;3.71;100.00
74905;BME280;63465;50.862;6.220;2024-01-06T08:07:56;99102.78;;;3.80;100.00
74905;BME280;63465;50.862;6.220;2024-01-06T08:10:21;99104.09;;;3.72;100.00
74905;BME280;63465;50.862;6.220;2024-01-06T08:12:47;99105.38;;;3.80;100.00
74905;BME280;63465;50.862;6.220;2024-01-06T08:15:13;99115.66;;;3.82;100.00
74905;BME280;63465;50.862;6.220;2024-01-06T08:17:38;99114.66;;;3.84;100.00
74905;BME280;63465;50.862;6.220;2024-01-06T08:20:06;99123.84;;;3.74;100.00
74905;BME280;63465;50.862;6.220;2024-01-06T08:22:32;99122.59;;;3.81;100.00
74905;BME280;63465;50.862;6.220;2024-01-06T08:24:57;99129.47;;;3.82;100.00
74905;BME280;63465;50.862;6.220;2024-01-06T08:27:22;99131.56;;;3.92;100.00
74905;BME280;63465;50.862;6.220;2024-01-06T08:29:49;99131.91;;;3.85;100.00
74905;BME280;63465;50.862;6.220;2024-01-06T08:32:15;99135.00;;;3.92;100.00
74905;BME280;63465;50.862;6.220;2024-01-06T08:34:40;99129.75;;;3.94;100.00
74905;BME280;63465;50.862;6.220;2024-01-06T08:37:05;99144.06;;;4.01;100.00
74905;BME280;63465;50.862;6.220;2024-01-06T08:39:31;99152.03;;;4.13;100.00
74905;BME280;63465;50.862;6.220;2024-01-06T08:41:56;99152.59;;;4.03;100.00
74905;BME280;63465;50.862;6.220;2024-01-06T08:44:21;99154.13;;;4.07;100.00
74905;BME280;63465;50.862;6.220;2024-01-06T08:46:47;99155.38;;;4.15;100.00
74905;BME280;63465;50.862;6.220;2024-01-06T08:49:12;99162.16;;;4.18;100.00
74905;BME280;63465;50.862;6.220;2024-01-06T08:51:37;99175.22;;;4.16;100.00
74905;BME280;63465;50.862;6.220;2024-01-06T08:54:03;99173.88;;;4.09;100.00
74905;BME280;63465;50.862;6.220;2024-01-06T08:56:30;99188.88;;;4.20;100.00
74905;BME280;63465;50.862;6.220;2024-01-06T08:58:55;99185.09;;;4.26;100.00
74905;BME280;63465;50.862;6.220;2024-01-06T09:01:22;99187.97;;;4.37;100.00
74905;BME280;63465;50.862;6.220;2024-01-06T09:03:47;99195.31;;;4.13;100.00
74905;BME280;63465;50.862;6.220;2024-01-06T09:06:12;99192.53;;;4.16;100.00
74905;BME280;63465;50.862;6.220;2024-01-06T09:08:38;99196.09;;;4.31;100.00
74905;BME280;63465;50.862;6.220;2024-01-06T09:11:04;99201.19;;;4.32;100.00
74905;BME280;63465;50.862;6.220;2024-01-06T09:13:29;99205.63;;;3.97;100.00
74905;BME280;63465;50.862;6.220;2024-01-06T09:15:54;99210.94;;;4.11;100.00
74905;BME280;63465;50.862;6.220;2024-01-06T09:18:20;99208.34;;;4.11;100.00
74905;BME280;63465;50.862;6.220;2024-01-06T09:20:45;99212.38;;;4.17;100.00
74905;BME280;63465;50.862;6.220;2024-01-06T09:23:13;99216.72;;;4.16;100.00
74905;BME280;63465;50.862;6.220;2024-01-06T09:25:38;99217.47;;;4.03;100.00
74905;BME280;63465;50.862;6.220;2024-01-06T09:28:05;99216.00;;;3.97;100.00
74905;BME280;63465;50.862;6.220;2024-01-06T09:30:30;99216.34;;;3.91;100.00
74905;BME280;63465;50.862;6.220;2024-01-06T09:32:56;99222.34;;;3.92;100.00
74905;BME280;63465;50.862;6.220;2024-01-06T09:35:21;99229.66;;;4.01;100.00
74905;BME280;63465;50.862;6.220;2024-01-06T09:37:46;99237.91;;;3.92;100.00
74905;BME280;63465;50.862;6.220;2024-01-06T09:40:12;99246.63;;;3.91;100.00
74905;BME280;63465;50.862;6.220;2024-01-06T09:42:40;99243.41;;;4.03;100.00
74905;BME280;63465;50.862;6.220;2024-01-06T09:45:07;99247.03;;;4.16;100.00
74905;BME280;63465;50.862;6.220;2024-01-06T09:47:34;99245.63;;;3.93;100.00
74905;BME280;63465;50.862;6.220;2024-01-06T09:50:01;99252.56;;;3.93;100.00
74905;BME280;63465;50.862;6.220;2024-01-06T09:52:28;99247.00;;;3.83;100.00
74905;BME280;63465;50.862;6.220;2024-01-06T09:54:58;99263.56;;;3.80;100.00
74905;BME280;63465;50.862;6.220;2024-01-06T09:57:24;99264.47;;;3.97;100.00
74905;BME280;63465;50.862;6.220;2024-01-06T09:59:50;99256.06;;;3.92;100.00
74905;BME280;63465;50.862;6.220;2024-01-06T10:02:16;99253.63;;;3.88;100.00
74905;BME280;63465;50.862;6.220;2024-01-06T10:04:45;99263.19;;;3.88;100.00
74905;BME280;63465;50.862;6.220;2024-01-06T10:07:11;99275.44;;;4.02;100.00
74905;BME280;63465;50.862;6.220;2024-01-06T10:09:38;99267.97;;;3.96;100.00
74905;BME280;63465;50.862;6.220;2024-01-06T10:12:05;99272.16;;;3.98;100.00
74905;BME280;63465;50.862;6.220;2024-01-06T10:14:30;99274.25;;;3.92;100.00
74905;BME280;63465;50.862;6.220;2024-01-06T10:16:56;99269.66;;;3.97;100.00
74905;BME280;63465;50.862;6.220;2024-01-06T10:19:23;99280.81;;;3.81;100.00
74905;BME280;63465;50.862;6.220;2024-01-06T10:21:48;99282.84;;;3.75;100.00
74905;BME280;63465;50.862;6.220;2024-01-06T10:24:14;99281.03;;;3.94;100.00
74905;BME280;63465;50.862;6.220;2024-01-06T10:26:39;99279.94;;;3.98;100.00
74905;BME280;63465;50.862;6.220;2024-01-06T10:29:05;99278.81;;;4.04;100.00
74905;BME280;63465;50.862;6.220;2024-01-06T10:31:30;99284.16;;;4.01;100.00
74905;BME280;63465;50.862;6.220;2024-01-06T10:33:55;99283.31;;;4.00;100.00
74905;BME280;63465;50.862;6.220;2024-01-06T10:36:23;99280.19;;;3.76;100.00
74905;BME280;63465;50.862;6.220;2024-01-06T10:38:49;99273.16;;;3.61;100.00
74905;BME280;63465;50.862;6.220;2024-01-06T10:41:16;99282.63;;;3.62;100.00
74905;BME280;63465;50.862;6.220;2024-01-06T10:43:42;99279.44;;;3.74;100.00
74905;BME280;63465;50.862;6.220;2024-01-06T10:46:09;99280.03;;;3.62;100.00
74905;BME280;63465;50.862;6.220;2024-01-06T10:48:38;99279.28;;;3.77;100.00
74905;BME280;63465;50.862;6.220;2024-01-06T10:51:07;99279.81;;;3.84;100.00
74905;BME280;63465;50.862;6.220;2024-01-06T10:53:33;99284.16;;;3.83;100.00
74905;BME280;63465;50.862;6.220;2024-01-06T10:56:03;99287.75;;;3.81;100.00
74905;BME280;63465;50.862;6.220;2024-01-06T10:58:29;99277.59;;;3.76;100.00
74905;BME280;63465;50.862;6.220;2024-01-06T11:00:58;99281.25;;;3.90;100.00
74905;BME280;63465;50.862;6.220;2024-01-06T11:03:24;99280.88;;;3.80;100.00
74905;BME280;63465;50.862;6.220;2024-01-06T11:05:51;99283.38;;;3.99;100.00
74905;BME280;63465;50.862;6.220;2024-01-06T11:08:17;99285.22;;;3.97;100.00
74905;BME280;63465;50.862;6.220;2024-01-06T11:10:44;99282.91;;;4.08;100.00
74905;BME280;63465;50.862;6.220;2024-01-06T11:13:21;99281.31;;;4.05;100.00
74905;BME280;63465;50.862;6.220;2024-01-06T11:15:48;99287.44;;;3.87;100.00
74905;BME280;63465;50.862;6.220;2024-01-06T11:18:36;99285.59;;;3.89;100.00
74905;BME280;63465;50.862;6.220;2024-01-06T11:21:18;99294.91;;;3.93;100.00
74905;BME280;63465;50.862;6.220;2024-01-06T11:24:25;99288.44;;;3.84;100.00
74905;BME280;63465;50.862;6.220;2024-01-06T11:26:53;99292.38;;;3.92;100.00
74905;BME280;63465;50.862;6.220;2024-01-06T11:29:20;99290.25;;;3.82;100.00
74905;BME280;63465;50.862;6.220;2024-01-06T11:32:17;99287.13;;;3.93;100.00
74905;BME280;63465;50.862;6.220;2024-01-06T11:34:47;99286.91;;;3.98;100.00
74905;BME280;63465;50.862;6.220;2024-01-06T11:37:14;99282.31;;;4.03;100.00
74905;BME280;63465;50.862;6.220;2024-01-06T11:39:41;99292.25;;;3.95;100.00
74905;BME280;63465;50.862;6.220;2024-01-06T11:42:09;99282.31;;;4.03;100.00
74905;BME280;63465;50.862;6.220;2024-01-06T11:44:39;99290.03;;;3.87;100.00
74905;BME280;63465;50.862;6.220;2024-01-06T11:47:05;99287.81;;;3.97;100.00
74905;BME280;63465;50.862;6.220;2024-01-06T11:49:31;99292.09;;;3.98;100.00
74905;BME280;63465;50.862;6.220;2024-01-06T11:51:57;99299.53;;;4.21;100.00
74905;BME280;63465;50.862;6.220;2024-01-06T11:54:23;99291.78;;;4.04;100.00
74905;BME280;63465;50.862;6.220;2024-01-06T11:56:48;99296.44;;;3.97;100.00
74905;BME280;63465;50.862;6.220;2024-01-06T11:59:15;99293.53;;;3.86;100.00
74905;BME280;63465;50.862;6.220;2024-01-06T12:01:40;99289.09;;;4.05;100.00
74905;BME280;63465;50.862;6.220;2024-01-06T12:04:06;99293.47;;;3.87;100.00
74905;BME280;63465;50.862;6.220;2024-01-06T12:06:34;99288.19;;;3.72;100.00
74905;BME280;63465;50.862;6.220;2024-01-06T12:09:07;99295.28;;;3.68;100.00
74905;BME280;63465;50.862;6.220;2024-01-06T12:11:33;99295.28;;;3.68;100.00
74905;BME280;63465;50.862;6.220;2024-01-06T12:13:58;99288.56;;;3.64;100.00
74905;BME280;63465;50.862;6.220;2024-01-06T12:16:24;99295.69;;;3.78;100.00
74905;BME280;63465;50.862;6.220;2024-01-06T12:18:53;99293.16;;;3.76;100.00
74905;BME280;63465;50.862;6.220;2024-01-06T12:21:22;99291.53;;;3.57;100.00
74905;BME280;63465;50.862;6.220;2024-01-06T12:23:47;99292.16;;;3.62;100.00
74905;BME280;63465;50.862;6.220;2024-01-06T12:26:12;99292.31;;;3.59;100.00
74905;BME280;63465;50.862;6.220;2024-01-06T12:28:38;99297.13;;;3.66;100.00
74905;BME280;63465;50.862;6.220;2024-01-06T12:31:04;99287.88;;;3.43;100.00
74905;BME280;63465;50.862;6.220;2024-01-06T12:33:30;99296.41;;;3.45;100.00
74905;BME280;63465;50.862;6.220;2024-01-06T12:35:57;99292.59;;;3.52;100.00
74905;BME280;63465;50.862;6.220;2024-01-06T12:38:23;99299.03;;;3.63;100.00
74905;BME280;63465;50.862;6.220;2024-01-06T12:40:52;99294.91;;;3.59;100.00
74905;BME280;63465;50.862;6.220;2024-01-06T12:43:19;99292.22;;;3.43;100.00
74905;BME280;63465;50.862;6.220;2024-01-06T12:45:44;99303.09;;;3.32;100.00
74905;BME280;63465;50.862;6.220;2024-01-06T12:48:09;99305.13;;;3.26;100.00
74905;BME280;63465;50.862;6.220;2024-01-06T12:50:35;99308.66;;;3.25;100.00
74905;BME280;63465;50.862;6.220;2024-01-06T12:53:00;99299.66;;;3.32;100.00